sensor_id;sensor_type;location;lat;lon;timestamp;P1;durP1;ratioP1;P2;durP2;ratioP2
6432;SDS011;3249;42.690;23.260;2022-08-18T00:01:43;7.33;;;6.63;;
6432;SDS011;3249;42.690;23.260;2022-08-18T00:04:12;7.33;;;6.80;;
6432;SDS011;3249;42.690;23.260;2022-08-18T00:06:38;7.57;;;6.77;;
6432;SDS011;3249;42.690;23.260;2022-08-18T00:09:05;7.07;;;6.53;;
6432;SDS011;3249;42.690;23.260;2022-08-18T00:11:33;7.93;;;6.73;;
6432;SDS011;3249;42.690;23.260;2022-08-18T00:14:00;7.77;;;7.00;;
6432;SDS011;3249;42.690;23.260;2022-08-18T00:16:25;6.43;;;5.83;;
6432;SDS011;3249;42.690;23.260;2022-08-18T00:18:51;7.50;;;6.80;;
6432;SDS011;3249;42.690;23.260;2022-08-18T00:21:16;8.07;;;7.37;;
6432;SDS011;3249;42.690;23.260;2022-08-18T00:23:42;9.40;;;8.50;;
6432;SDS011;3249;42.690;23.260;2022-08-18T00:26:08;9.27;;;8.47;;
6432;SDS011;3249;42.690;23.260;2022-08-18T00:28:34;8.97;;;8.17;;
6432;SDS011;3249;42.690;23.260;2022-08-18T00:30:59;9.80;;;7.60;;
6432;SDS011;3249;42.690;23.260;2022-08-18T00:33:25;8.60;;;7.70;;
6432;SDS011;3249;42.690;23.260;2022-08-18T00:35:51;9.83;;;8.27;;
6432;SDS011;3249;42.690;23.260;2022-08-18T00:38:16;9.37;;;8.23;;
6432;SDS011;3249;42.690;23.260;2022-08-18T00:40:46;9.50;;;7.97;;
6432;SDS011;3249;42.690;23.260;2022-08-18T00:43:24;10.37;;;8.07;;
6432;SDS011;3249;42.690;23.260;2022-08-18T00:45:56;10.20;;;9.20;;
6432;SDS011;3249;42.690;23.260;2022-08-18T00:48:21;8.73;;;7.90;;
6432;SDS011;3249;42.690;23.260;2022-08-18T00:50:53;9.33;;;8.40;;
6432;SDS011;3249;42.690;23.260;2022-08-18T00:55:46;8.63;;;7.83;;
6432;SDS011;3249;42.690;23.260;2022-08-18T00:58:22;13.47;;;7.97;;
6432;SDS011;3249;42.690;23.260;2022-08-18T01:00:52;9.63;;;8.03;;
6432;SDS011;3249;42.690;23.260;2022-08-18T01:03:19;13.00;;;7.83;;
6432;SDS011;3249;42.690;23.260;2022-08-18T01:05:47;9.10;;;8.27;;
6432;SDS011;3249;42.690;23.260;2022-08-18T01:08:18;10.87;;;7.90;;
6432;SDS011;3249;42.690;23.260;2022-08-18T01:10:44;9.57;;;8.67;;
6432;SDS011;3249;42.690;23.260;2022-08-18T01:13:10;8.77;;;7.97;;
6432;SDS011;3249;42.690;23.260;2022-08-18T01:15:36;12.30;;;8.50;;
6432;SDS011;3249;42.690;23.260;2022-08-18T01:18:06;11.93;;;10.03;;
6432;SDS011;3249;42.690;23.260;2022-08-18T01:20:58;17.57;;;12.10;;
6432;SDS011;3249;42.690;23.260;2022-08-18T01:23:47;14.43;;;10.07;;
6432;SDS011;3249;42.690;23.260;2022-08-18T01:26:16;17.27;;;10.00;;
6432;SDS011;3249;42.690;23.260;2022-08-18T01:28:43;12.60;;;9.10;;
6432;SDS011;3249;42.690;23.260;2022-08-18T01:31:11;10.43;;;9.33;;
6432;SDS011;3249;42.690;23.260;2022-08-18T01:33:52;10.47;;;9.30;;
6432;SDS011;3249;42.690;23.260;2022-08-18T01:36:19;10.70;;;8.77;;
6432;SDS011;3249;42.690;23.260;2022-08-18T01:38:47;12.67;;;8.57;;
6432;SDS011;3249;42.690;23.260;2022-08-18T01:41:15;9.90;;;8.43;;
6432;SDS011;3249;42.690;23.260;2022-08-18T01:43:45;11.17;;;8.37;;
6432;SDS011;3249;42.690;23.260;2022-08-18T01:46:11;9.67;;;8.67;;
6432;SDS011;3249;42.690;23.260;2022-08-18T01:48:37;9.97;;;8.97;;
6432;SDS011;3249;42.690;23.260;2022-08-18T01:51:04;14.43;;;9.60;;
6432;SDS011;3249;42.690;23.260;2022-08-18T01:53:31;10.93;;;9.37;;
6432;SDS011;3249;42.690;23.260;2022-08-18T01:55:57;10.37;;;8.90;;
6432;SDS011;3249;42.690;23.260;2022-08-18T01:58:22;15.30;;;9.53;;
6432;SDS011;3249;42.690;23.260;2022-08-18T02:00:52;12.73;;;10.30;;
6432;SDS011;3249;42.690;23.260;2022-08-18T02:03:22;10.53;;;8.90;;
6432;SDS011;3249;42.690;23.260;2022-08-18T02:05:54;9.83;;;8.57;;
6432;SDS011;3249;42.690;23.260;2022-08-18T02:08:22;10.43;;;9.00;;
6432;SDS011;3249;42.690;23.260;2022-08-18T02:10:48;12.60;;;9.30;;
6432;SDS011;3249;42.690;23.260;2022-08-18T02:13:13;10.57;;;9.60;;
6432;SDS011;3249;42.690;23.260;2022-08-18T02:15:39;11.97;;;10.00;;
6432;SDS011;3249;42.690;23.260;2022-08-18T02:18:05;23.27;;;11.17;;
6432;SDS011;3249;42.690;23.260;2022-08-18T02:20:30;20.17;;;10.40;;
6432;SDS011;3249;42.690;23.260;2022-08-18T02:22:56;16.37;;;10.93;;
6432;SDS011;3249;42.690;23.260;2022-08-18T02:25:22;12.93;;;10.03;;
6432;SDS011;3249;42.690;23.260;2022-08-18T02:27:48;12.40;;;10.40;;
6432;SDS011;3249;42.690;23.260;2022-08-18T02:30:14;13.93;;;10.53;;
6432;SDS011;3249;42.690;23.260;2022-08-18T02:32:41;13.87;;;9.87;;
6432;SDS011;3249;42.690;23.260;2022-08-18T02:35:07;15.37;;;9.73;;
6432;SDS011;3249;42.690;23.260;2022-08-18T02:37:33;17.30;;;9.80;;
6432;SDS011;3249;42.690;23.260;2022-08-18T02:39:58;13.60;;;9.60;;
6432;SDS011;3249;42.690;23.260;2022-08-18T02:42:24;12.97;;;9.33;;
6432;SDS011;3249;42.690;23.260;2022-08-18T02:44:49;17.07;;;9.43;;
6432;SDS011;3249;42.690;23.260;2022-08-18T02:47:18;16.83;;;9.67;;
6432;SDS011;3249;42.690;23.260;2022-08-18T02:49:44;13.87;;;9.77;;
6432;SDS011;3249;42.690;23.260;2022-08-18T02:52:09;12.47;;;9.90;;
6432;SDS011;3249;42.690;23.260;2022-08-18T02:54:35;11.80;;;9.70;;
6432;SDS011;3249;42.690;23.260;2022-08-18T02:57:04;16.77;;;9.33;;
6432;SDS011;3249;42.690;23.260;2022-08-18T02:59:32;13.70;;;9.50;;
6432;SDS011;3249;42.690;23.260;2022-08-18T03:01:57;12.80;;;9.47;;
6432;SDS011;3249;42.690;23.260;2022-08-18T03:04:24;9.40;;;8.33;;
6432;SDS011;3249;42.690;23.260;2022-08-18T03:06:51;9.67;;;8.60;;
6432;SDS011;3249;42.690;23.260;2022-08-18T03:09:20;11.70;;;9.03;;
6432;SDS011;3249;42.690;23.260;2022-08-18T03:11:46;16.97;;;10.93;;
6432;SDS011;3249;42.690;23.260;2022-08-18T03:14:12;9.50;;;8.53;;
6432;SDS011;3249;42.690;23.260;2022-08-18T03:16:45;14.10;;;10.00;;
6432;SDS011;3249;42.690;23.260;2022-08-18T03:19:12;19.27;;;11.00;;
6432;SDS011;3249;42.690;23.260;2022-08-18T03:21:41;13.43;;;10.10;;
6432;SDS011;3249;42.690;23.260;2022-08-18T03:24:08;14.63;;;9.60;;
6432;SDS011;3249;42.690;23.260;2022-08-18T03:26:34;11.90;;;9.30;;
6432;SDS011;3249;42.690;23.260;2022-08-18T03:29:00;18.97;;;9.87;;
6432;SDS011;3249;42.690;23.260;2022-08-18T03:31:28;11.33;;;10.00;;
6432;SDS011;3249;42.690;23.260;2022-08-18T03:33:56;14.40;;;9.40;;
6432;SDS011;3249;42.690;23.260;2022-08-18T03:36:24;14.93;;;10.00;;
6432;SDS011;3249;42.690;23.260;2022-08-18T03:38:51;16.03;;;12.37;;
6432;SDS011;3249;42.690;23.260;2022-08-18T03:41:19;23.00;;;11.87;;
6432;SDS011;3249;42.690;23.260;2022-08-18T03:43:49;18.97;;;11.00;;
6432;SDS011;3249;42.690;23.260;2022-08-18T03:46:16;14.63;;;10.90;;
6432;SDS011;3249;42.690;23.260;2022-08-18T03:48:43;11.73;;;9.83;;
6432;SDS011;3249;42.690;23.260;2022-08-18T03:51:14;12.37;;;10.13;;
6432;SDS011;3249;42.690;23.260;2022-08-18T03:53:42;17.40;;;12.00;;
6432;SDS011;3249;42.690;23.260;2022-08-18T03:56:10;25.60;;;11.20;;
6432;SDS011;3249;42.690;23.260;2022-08-18T03:58:50;17.63;;;11.70;;
6432;SDS011;3249;42.690;23.260;2022-08-18T04:01:18;20.17;;;12.27;;
6432;SDS011;3249;42.690;23.260;2022-08-18T04:03:46;22.73;;;13.30;;
6432;SDS011;3249;42.690;23.260;2022-08-18T04:06:15;25.00;;;13.33;;
6432;SDS011;3249;42.690;23.260;2022-08-18T04:08:42;23.73;;;13.70;;
6432;SDS011;3249;42.690;23.260;2022-08-18T04:11:08;18.20;;;11.40;;
6432;SDS011;3249;42.690;23.260;2022-08-18T04:13:34;21.83;;;11.13;;
6432;SDS011;3249;42.690;23.260;2022-08-18T04:16:01;21.87;;;11.50;;
6432;SDS011;3249;42.690;23.260;2022-08-18T04:18:26;16.90;;;11.50;;
6432;SDS011;3249;42.690;23.260;2022-08-18T04:20:52;20.70;;;13.03;;
6432;SDS011;3249;42.690;23.260;2022-08-18T04:23:17;32.63;;;13.10;;
6432;SDS011;3249;42.690;23.260;2022-08-18T04:25:43;19.30;;;12.47;;
6432;SDS011;3249;42.690;23.260;2022-08-18T04:28:08;21.60;;;12.00;;
6432;SDS011;3249;42.690;23.260;2022-08-18T04:30:35;27.77;;;12.47;;
6432;SDS011;3249;42.690;23.260;2022-08-18T04:33:00;17.17;;;10.63;;
6432;SDS011;3249;42.690;23.260;2022-08-18T04:35:26;15.73;;;10.53;;
6432;SDS011;3249;42.690;23.260;2022-08-18T04:37:53;16.10;;;11.27;;
6432;SDS011;3249;42.690;23.260;2022-08-18T04:40:19;11.47;;;10.23;;
6432;SDS011;3249;42.690;23.260;2022-08-18T04:42:44;16.20;;;10.97;;
6432;SDS011;3249;42.690;23.260;2022-08-18T04:45:10;19.03;;;12.40;;
6432;SDS011;3249;42.690;23.260;2022-08-18T04:47:39;21.00;;;12.10;;
6432;SDS011;3249;42.690;23.260;2022-08-18T04:50:06;22.63;;;12.10;;
6432;SDS011;3249;42.690;23.260;2022-08-18T04:52:32;15.30;;;10.87;;
6432;SDS011;3249;42.690;23.260;2022-08-18T04:55:16;18.03;;;11.27;;
6432;SDS011;3249;42.690;23.260;2022-08-18T04:57:41;17.07;;;11.53;;
6432;SDS011;3249;42.690;23.260;2022-08-18T05:00:07;14.23;;;10.83;;
6432;SDS011;3249;42.690;23.260;2022-08-18T05:02:36;17.67;;;11.93;;
6432;SDS011;3249;42.690;23.260;2022-08-18T05:05:02;21.50;;;12.73;;
6432;SDS011;3249;42.690;23.260;2022-08-18T05:07:28;19.03;;;12.93;;
6432;SDS011;3249;42.690;23.260;2022-08-18T05:09:54;19.97;;;12.53;;
6432;SDS011;3249;42.690;23.260;2022-08-18T05:12:20;15.47;;;13.10;;
6432;SDS011;3249;42.690;23.260;2022-08-18T05:14:46;18.87;;;12.73;;
6432;SDS011;3249;42.690;23.260;2022-08-18T05:17:12;16.50;;;10.90;;
6432;SDS011;3249;42.690;23.260;2022-08-18T05:19:40;11.70;;;9.97;;
6432;SDS011;3249;42.690;23.260;2022-08-18T05:22:08;17.00;;;12.17;;
6432;SDS011;3249;42.690;23.260;2022-08-18T05:24:34;20.67;;;12.27;;
6432;SDS011;3249;42.690;23.260;2022-08-18T05:27:01;15.93;;;11.63;;
6432;SDS011;3249;42.690;23.260;2022-08-18T05:29:28;15.33;;;12.13;;
6432;SDS011;3249;42.690;23.260;2022-08-18T05:32:01;13.53;;;9.87;;
6432;SDS011;3249;42.690;23.260;2022-08-18T05:34:28;19.23;;;10.20;;
6432;SDS011;3249;42.690;23.260;2022-08-18T05:37:00;14.97;;;12.03;;
6432;SDS011;3249;42.690;23.260;2022-08-18T05:42:17;13.43;;;9.97;;
6432;SDS011;3249;42.690;23.260;2022-08-18T05:44:46;9.90;;;8.83;;
6432;SDS011;3249;42.690;23.260;2022-08-18T05:47:16;9.60;;;7.87;;
6432;SDS011;3249;42.690;23.260;2022-08-18T05:49:47;9.03;;;8.23;;
6432;SDS011;3249;42.690;23.260;2022-08-18T05:52:15;10.70;;;8.73;;
6432;SDS011;3249;42.690;23.260;2022-08-18T05:54:50;8.77;;;7.97;;
6432;SDS011;3249;42.690;23.260;2022-08-18T05:57:42;8.83;;;7.90;;
6432;SDS011;3249;42.690;23.260;2022-08-18T06:00:15;8.83;;;8.03;;
6432;SDS011;3249;42.690;23.260;2022-08-18T06:05:26;11.60;;;8.50;;
6432;SDS011;3249;42.690;23.260;2022-08-18T06:07:59;12.87;;;9.40;;
6432;SDS011;3249;42.690;23.260;2022-08-18T06:10:27;15.23;;;11.60;;
6432;SDS011;3249;42.690;23.260;2022-08-18T06:12:53;12.53;;;10.27;;
6432;SDS011;3249;42.690;23.260;2022-08-18T06:37:58;21.17;;;10.77;;
6432;SDS011;3249;42.690;23.260;2022-08-18T06:43:37;11.03;;;9.23;;
6432;SDS011;3249;42.690;23.260;2022-08-18T06:46:11;15.30;;;9.67;;
6432;SDS011;3249;42.690;23.260;2022-08-18T06:48:43;15.17;;;9.83;;
6432;SDS011;3249;42.690;23.260;2022-08-18T06:51:18;13.17;;;9.50;;
6432;SDS011;3249;42.690;23.260;2022-08-18T06:56:24;14.20;;;9.10;;
6432;SDS011;3249;42.690;23.260;2022-08-18T06:59:21;17.47;;;9.33;;
6432;SDS011;3249;42.690;23.260;2022-08-18T07:01:55;12.40;;;9.13;;
6432;SDS011;3249;42.690;23.260;2022-08-18T07:04:34;10.23;;;7.97;;
6432;SDS011;3249;42.690;23.260;2022-08-18T07:07:15;8.90;;;8.07;;
6432;SDS011;3249;42.690;23.260;2022-08-18T07:09:44;9.87;;;7.23;;
6432;SDS011;3249;42.690;23.260;2022-08-18T07:12:11;9.60;;;6.77;;
6432;SDS011;3249;42.690;23.260;2022-08-18T07:14:47;7.80;;;6.70;;
6432;SDS011;3249;42.690;23.260;2022-08-18T07:17:22;10.77;;;7.47;;
6432;SDS011;3249;42.690;23.260;2022-08-18T07:20:01;7.40;;;6.70;;
6432;SDS011;3249;42.690;23.260;2022-08-18T07:22:52;10.87;;;7.10;;
6432;SDS011;3249;42.690;23.260;2022-08-18T07:25:28;11.40;;;7.73;;
6432;SDS011;3249;42.690;23.260;2022-08-18T07:27:54;7.53;;;6.80;;
6432;SDS011;3249;42.690;23.260;2022-08-18T07:35:23;7.87;;;7.10;;
6432;SDS011;3249;42.690;23.260;2022-08-18T07:37:56;7.37;;;6.63;;
6432;SDS011;3249;42.690;23.260;2022-08-18T07:40:31;8.73;;;6.77;;
6432;SDS011;3249;42.690;23.260;2022-08-18T07:43:08;7.23;;;6.40;;
6432;SDS011;3249;42.690;23.260;2022-08-18T07:45:49;8.43;;;7.60;;
6432;SDS011;3249;42.690;23.260;2022-08-18T07:48:32;13.00;;;6.87;;
6432;SDS011;3249;42.690;23.260;2022-08-18T07:56:34;10.73;;;7.77;;
6432;SDS011;3249;42.690;23.260;2022-08-18T07:59:34;7.53;;;6.80;;
6432;SDS011;3249;42.690;23.260;2022-08-18T08:07:11;7.70;;;7.00;;
6432;SDS011;3249;42.690;23.260;2022-08-18T08:14:47;7.10;;;6.53;;
6432;SDS011;3249;42.690;23.260;2022-08-18T08:17:29;6.87;;;6.23;;
6432;SDS011;3249;42.690;23.260;2022-08-18T08:25:41;6.83;;;6.17;;
6432;SDS011;3249;42.690;23.260;2022-08-18T08:31:19;8.70;;;5.63;;
6432;SDS011;3249;42.690;23.260;2022-08-18T08:34:44;6.57;;;5.97;;
6432;SDS011;3249;42.690;23.260;2022-08-18T08:36:52;9.10;;;6.93;;
6432;SDS011;3249;42.690;23.260;2022-08-18T08:39:30;6.20;;;5.63;;
6432;SDS011;3249;42.690;23.260;2022-08-18T08:45:09;10.93;;;5.80;;
6432;SDS011;3249;42.690;23.260;2022-08-18T08:50:47;5.90;;;5.40;;
6432;SDS011;3249;42.690;23.260;2022-08-18T08:53:24;5.63;;;5.23;;
6432;SDS011;3249;42.690;23.260;2022-08-18T08:55:59;6.60;;;5.97;;
6432;SDS011;3249;42.690;23.260;2022-08-18T08:58:36;5.90;;;5.40;;
6432;SDS011;3249;42.690;23.260;2022-08-18T09:01:36;7.27;;;5.10;;
6432;SDS011;3249;42.690;23.260;2022-08-18T09:04:48;5.73;;;5.23;;
6432;SDS011;3249;42.690;23.260;2022-08-18T09:13:19;5.70;;;5.40;;
6432;SDS011;3249;42.690;23.260;2022-08-18T09:24:05;6.03;;;5.20;;
6432;SDS011;3249;42.690;23.260;2022-08-18T09:26:46;6.20;;;5.13;;
6432;SDS011;3249;42.690;23.260;2022-08-18T09:29:45;5.90;;;5.30;;
6432;SDS011;3249;42.690;23.260;2022-08-18T09:40:34;6.57;;;4.87;;
6432;SDS011;3249;42.690;23.260;2022-08-18T09:46:17;5.30;;;4.90;;
6432;SDS011;3249;42.690;23.260;2022-08-18T09:51:52;6.27;;;5.67;;
6432;SDS011;3249;42.690;23.260;2022-08-18T09:54:23;9.10;;;5.23;;
6432;SDS011;3249;42.690;23.260;2022-08-18T09:57:04;6.10;;;5.50;;
6432;SDS011;3249;42.690;23.260;2022-08-18T10:07:47;11.10;;;6.00;;
6432;SDS011;3249;42.690;23.260;2022-08-18T10:18:43;5.10;;;4.80;;
6432;SDS011;3249;42.690;23.260;2022-08-18T10:29:04;6.13;;;5.60;;
6432;SDS011;3249;42.690;23.260;2022-08-18T10:34:39;6.33;;;5.80;;
6432;SDS011;3249;42.690;23.260;2022-08-18T10:37:11;6.00;;;5.60;;
6432;SDS011;3249;42.690;23.260;2022-08-18T10:42:11;5.60;;;5.17;;
6432;SDS011;3249;42.690;23.260;2022-08-18T10:44:44;6.03;;;5.37;;
6432;SDS011;3249;42.690;23.260;2022-08-18T10:47:25;5.60;;;5.10;;
6432;SDS011;3249;42.690;23.260;2022-08-18T10:49:54;7.47;;;5.27;;
6432;SDS011;3249;42.690;23.260;2022-08-18T10:55:14;5.60;;;5.20;;
6432;SDS011;3249;42.690;23.260;2022-08-18T11:01:14;5.70;;;5.17;;
6432;SDS011;3249;42.690;23.260;2022-08-18T11:06:09;4.90;;;4.60;;
6432;SDS011;3249;42.690;23.260;2022-08-18T11:08:42;5.10;;;4.80;;
6432;SDS011;3249;42.690;23.260;2022-08-18T11:11:10;5.60;;;5.03;;
6432;SDS011;3249;42.690;23.260;2022-08-18T11:19:12;9.23;;;8.43;;
6432;SDS011;3249;42.690;23.260;2022-08-18T11:24:15;7.87;;;5.13;;
6432;SDS011;3249;42.690;23.260;2022-08-18T11:35:14;5.80;;;5.30;;
6432;SDS011;3249;42.690;23.260;2022-08-18T11:45:28;6.20;;;5.63;;
6432;SDS011;3249;42.690;23.260;2022-08-18T11:50:46;7.77;;;5.30;;
6432;SDS011;3249;42.690;23.260;2022-08-18T11:56:16;7.80;;;7.10;;
6432;SDS011;3249;42.690;23.260;2022-08-18T11:58:46;7.57;;;6.80;;
6432;SDS011;3249;42.690;23.260;2022-08-18T12:06:35;5.77;;;5.47;;
6432;SDS011;3249;42.690;23.260;2022-08-18T12:09:05;6.50;;;5.57;;
6432;SDS011;3249;42.690;23.260;2022-08-18T12:11:48;6.17;;;5.70;;
6432;SDS011;3249;42.690;23.260;2022-08-18T12:14:19;6.10;;;5.60;;
6432;SDS011;3249;42.690;23.260;2022-08-18T12:16:46;6.10;;;5.57;;
6432;SDS011;3249;42.690;23.260;2022-08-18T12:19:12;6.23;;;5.70;;
6432;SDS011;3249;42.690;23.260;2022-08-18T12:21:39;9.03;;;6.07;;
6432;SDS011;3249;42.690;23.260;2022-08-18T12:24:09;6.73;;;6.03;;
6432;SDS011;3249;42.690;23.260;2022-08-18T12:26:43;13.87;;;11.63;;
6432;SDS011;3249;42.690;23.260;2022-08-18T12:29:08;6.30;;;5.20;;
6432;SDS011;3249;42.690;23.260;2022-08-18T12:31:34;6.53;;;5.93;;
6432;SDS011;3249;42.690;23.260;2022-08-18T12:33:59;5.87;;;5.47;;
6432;SDS011;3249;42.690;23.260;2022-08-18T12:36:25;6.30;;;5.90;;
6432;SDS011;3249;42.690;23.260;2022-08-18T12:38:52;6.57;;;5.67;;
6432;SDS011;3249;42.690;23.260;2022-08-18T12:41:17;12.93;;;9.93;;
6432;SDS011;3249;42.690;23.260;2022-08-18T12:43:43;7.00;;;6.47;;
6432;SDS011;3249;42.690;23.260;2022-08-18T12:46:08;6.50;;;6.10;;
6432;SDS011;3249;42.690;23.260;2022-08-18T12:48:34;6.40;;;5.90;;
6432;SDS011;3249;42.690;23.260;2022-08-18T12:51:00;6.67;;;5.90;;
6432;SDS011;3249;42.690;23.260;2022-08-18T12:53:25;6.67;;;6.17;;
6432;SDS011;3249;42.690;23.260;2022-08-18T12:55:51;6.17;;;5.67;;
6432;SDS011;3249;42.690;23.260;2022-08-18T12:58:16;6.37;;;5.90;;
6432;SDS011;3249;42.690;23.260;2022-08-18T13:00:42;6.30;;;5.90;;
6432;SDS011;3249;42.690;23.260;2022-08-18T13:03:07;6.70;;;5.97;;
6432;SDS011;3249;42.690;23.260;2022-08-18T13:05:33;6.43;;;5.93;;
6432;SDS011;3249;42.690;23.260;2022-08-18T13:08:00;6.43;;;5.87;;
6432;SDS011;3249;42.690;23.260;2022-08-18T13:10:27;16.07;;;6.50;;
6432;SDS011;3249;42.690;23.260;2022-08-18T13:12:53;5.90;;;5.40;;
6432;SDS011;3249;42.690;23.260;2022-08-18T13:15:18;7.00;;;6.33;;
6432;SDS011;3249;42.690;23.260;2022-08-18T13:17:43;6.47;;;6.07;;
6432;SDS011;3249;42.690;23.260;2022-08-18T13:20:11;8.67;;;7.03;;
6432;SDS011;3249;42.690;23.260;2022-08-18T13:22:40;6.10;;;5.60;;
6432;SDS011;3249;42.690;23.260;2022-08-18T13:25:07;10.07;;;6.00;;
6432;SDS011;3249;42.690;23.260;2022-08-18T13:27:35;6.10;;;5.57;;
6432;SDS011;3249;42.690;23.260;2022-08-18T13:30:03;6.50;;;5.93;;
6432;SDS011;3249;42.690;23.260;2022-08-18T13:32:31;6.83;;;6.23;;
6432;SDS011;3249;42.690;23.260;2022-08-18T13:34:58;6.40;;;5.97;;
6432;SDS011;3249;42.690;23.260;2022-08-18T13:37:23;7.27;;;6.67;;
6432;SDS011;3249;42.690;23.260;2022-08-18T13:39:50;8.13;;;6.23;;
6432;SDS011;3249;42.690;23.260;2022-08-18T13:42:15;6.27;;;5.77;;
6432;SDS011;3249;42.690;23.260;2022-08-18T13:44:41;6.70;;;5.90;;
6432;SDS011;3249;42.690;23.260;2022-08-18T13:47:10;11.60;;;5.90;;
6432;SDS011;3249;42.690;23.260;2022-08-18T13:49:35;6.23;;;5.73;;
6432;SDS011;3249;42.690;23.260;2022-08-18T13:52:01;7.67;;;5.30;;
6432;SDS011;3249;42.690;23.260;2022-08-18T13:54:28;5.70;;;5.40;;
6432;SDS011;3249;42.690;23.260;2022-08-18T13:56:57;5.80;;;5.20;;
6432;SDS011;3249;42.690;23.260;2022-08-18T13:59:24;8.47;;;5.50;;
6432;SDS011;3249;42.690;23.260;2022-08-18T14:01:55;8.43;;;5.77;;
6432;SDS011;3249;42.690;23.260;2022-08-18T14:04:22;6.33;;;5.83;;
6432;SDS011;3249;42.690;23.260;2022-08-18T14:06:48;6.50;;;5.97;;
6432;SDS011;3249;42.690;23.260;2022-08-18T14:09:14;6.40;;;5.90;;
6432;SDS011;3249;42.690;23.260;2022-08-18T14:11:40;7.93;;;6.80;;
6432;SDS011;3249;42.690;23.260;2022-08-18T14:14:05;6.83;;;6.00;;
6432;SDS011;3249;42.690;23.260;2022-08-18T14:16:31;6.40;;;5.93;;
6432;SDS011;3249;42.690;23.260;2022-08-18T14:18:58;6.57;;;5.83;;
6432;SDS011;3249;42.690;23.260;2022-08-18T14:21:46;7.27;;;6.23;;
6432;SDS011;3249;42.690;23.260;2022-08-18T14:24:32;6.90;;;6.40;;
6432;SDS011;3249;42.690;23.260;2022-08-18T14:27:19;6.93;;;6.43;;
6432;SDS011;3249;42.690;23.260;2022-08-18T14:29:49;6.40;;;5.90;;
6432;SDS011;3249;42.690;23.260;2022-08-18T14:32:18;6.60;;;6.00;;
6432;SDS011;3249;42.690;23.260;2022-08-18T14:34:46;7.00;;;6.47;;
6432;SDS011;3249;42.690;23.260;2022-08-18T14:37:11;6.37;;;5.90;;
6432;SDS011;3249;42.690;23.260;2022-08-18T14:39:37;6.70;;;6.20;;
6432;SDS011;3249;42.690;23.260;2022-08-18T14:42:02;6.97;;;6.43;;
6432;SDS011;3249;42.690;23.260;2022-08-18T14:44:28;6.97;;;6.33;;
6432;SDS011;3249;42.690;23.260;2022-08-18T14:46:54;6.70;;;6.20;;
6432;SDS011;3249;42.690;23.260;2022-08-18T14:49:24;8.10;;;6.00;;
6432;SDS011;3249;42.690;23.260;2022-08-18T14:51:50;7.73;;;6.10;;
6432;SDS011;3249;42.690;23.260;2022-08-18T14:54:16;9.47;;;6.70;;
6432;SDS011;3249;42.690;23.260;2022-08-18T14:56:41;6.87;;;6.37;;
6432;SDS011;3249;42.690;23.260;2022-08-18T14:59:07;7.07;;;6.47;;
6432;SDS011;3249;42.690;23.260;2022-08-18T15:01:34;6.70;;;6.13;;
6432;SDS011;3249;42.690;23.260;2022-08-18T15:04:00;8.20;;;6.10;;
6432;SDS011;3249;42.690;23.260;2022-08-18T15:06:26;7.10;;;6.43;;
6432;SDS011;3249;42.690;23.260;2022-08-18T15:08:52;6.97;;;6.37;;
6432;SDS011;3249;42.690;23.260;2022-08-18T15:11:18;6.43;;;6.03;;
6432;SDS011;3249;42.690;23.260;2022-08-18T15:13:43;7.53;;;6.53;;
6432;SDS011;3249;42.690;23.260;2022-08-18T15:16:10;6.73;;;5.93;;
6432;SDS011;3249;42.690;23.260;2022-08-18T15:18:38;7.30;;;6.63;;
6432;SDS011;3249;42.690;23.260;2022-08-18T15:21:04;8.27;;;5.90;;
6432;SDS011;3249;42.690;23.260;2022-08-18T15:23:48;6.43;;;5.83;;
6432;SDS011;3249;42.690;23.260;2022-08-18T15:26:32;7.20;;;6.70;;
6432;SDS011;3249;42.690;23.260;2022-08-18T15:28:58;6.30;;;5.87;;
6432;SDS011;3249;42.690;23.260;2022-08-18T15:31:24;7.17;;;5.90;;
6432;SDS011;3249;42.690;23.260;2022-08-18T15:33:51;6.90;;;6.40;;
6432;SDS011;3249;42.690;23.260;2022-08-18T15:36:17;7.30;;;6.50;;
6432;SDS011;3249;42.690;23.260;2022-08-18T15:38:45;9.17;;;6.73;;
6432;SDS011;3249;42.690;23.260;2022-08-18T15:41:27;7.37;;;6.70;;
6432;SDS011;3249;42.690;23.260;2022-08-18T15:43:58;7.57;;;6.40;;
6432;SDS011;3249;42.690;23.260;2022-08-18T15:46:25;6.77;;;6.23;;
6432;SDS011;3249;42.690;23.260;2022-08-18T15:48:51;7.20;;;6.67;;
6432;SDS011;3249;42.690;23.260;2022-08-18T15:51:17;6.90;;;6.03;;
6432;SDS011;3249;42.690;23.260;2022-08-18T15:53:42;7.23;;;6.73;;
6432;SDS011;3249;42.690;23.260;2022-08-18T15:56:12;7.07;;;6.50;;
6432;SDS011;3249;42.690;23.260;2022-08-18T15:58:39;7.27;;;6.63;;
6432;SDS011;3249;42.690;23.260;2022-08-18T16:01:07;6.90;;;6.20;;
6432;SDS011;3249;42.690;23.260;2022-08-18T16:03:34;6.80;;;6.30;;
6432;SDS011;3249;42.690;23.260;2022-08-18T16:06:01;8.97;;;8.07;;
6432;SDS011;3249;42.690;23.260;2022-08-18T16:08:26;16.77;;;12.77;;
6432;SDS011;3249;42.690;23.260;2022-08-18T16:10:52;10.67;;;6.90;;
6432;SDS011;3249;42.690;23.260;2022-08-18T16:13:19;9.17;;;8.40;;
6432;SDS011;3249;42.690;23.260;2022-08-18T16:15:45;8.63;;;7.10;;
6432;SDS011;3249;42.690;23.260;2022-08-18T16:18:12;7.43;;;6.57;;
6432;SDS011;3249;42.690;23.260;2022-08-18T16:20:39;7.33;;;6.73;;
6432;SDS011;3249;42.690;23.260;2022-08-18T16:23:05;8.43;;;7.67;;
6432;SDS011;3249;42.690;23.260;2022-08-18T16:25:31;8.93;;;7.20;;
6432;SDS011;3249;42.690;23.260;2022-08-18T16:27:58;10.80;;;9.67;;
6432;SDS011;3249;42.690;23.260;2022-08-18T16:30:24;7.43;;;6.73;;
6432;SDS011;3249;42.690;23.260;2022-08-18T16:32:51;10.47;;;6.87;;
6432;SDS011;3249;42.690;23.260;2022-08-18T16:35:18;7.67;;;7.17;;
6432;SDS011;3249;42.690;23.260;2022-08-18T16:37:45;7.13;;;6.63;;
6432;SDS011;3249;42.690;23.260;2022-08-18T16:40:13;7.00;;;6.20;;
6432;SDS011;3249;42.690;23.260;2022-08-18T16:42:39;10.10;;;9.27;;
6432;SDS011;3249;42.690;23.260;2022-08-18T16:45:05;7.73;;;7.03;;
6432;SDS011;3249;42.690;23.260;2022-08-18T16:47:33;8.23;;;7.43;;
6432;SDS011;3249;42.690;23.260;2022-08-18T16:50:04;9.27;;;8.37;;
6432;SDS011;3249;42.690;23.260;2022-08-18T16:52:39;9.50;;;8.10;;
6432;SDS011;3249;42.690;23.260;2022-08-18T16:55:06;8.70;;;7.97;;
6432;SDS011;3249;42.690;23.260;2022-08-18T16:57:33;8.30;;;7.50;;
6432;SDS011;3249;42.690;23.260;2022-08-18T17:00:18;8.90;;;7.67;;
6432;SDS011;3249;42.690;23.260;2022-08-18T17:03:04;8.97;;;8.17;;
6432;SDS011;3249;42.690;23.260;2022-08-18T17:05:49;9.03;;;7.83;;
6432;SDS011;3249;42.690;23.260;2022-08-18T17:08:22;8.60;;;7.63;;
6432;SDS011;3249;42.690;23.260;2022-08-18T17:10:49;8.47;;;7.70;;
6432;SDS011;3249;42.690;23.260;2022-08-18T17:13:14;9.73;;;7.57;;
6432;SDS011;3249;42.690;23.260;2022-08-18T17:15:40;11.10;;;8.70;;
6432;SDS011;3249;42.690;23.260;2022-08-18T17:18:05;10.13;;;7.07;;
6432;SDS011;3249;42.690;23.260;2022-08-18T17:20:32;8.37;;;7.60;;
6432;SDS011;3249;42.690;23.260;2022-08-18T17:22:59;15.90;;;8.10;;
6432;SDS011;3249;42.690;23.260;2022-08-18T17:25:24;10.10;;;8.13;;
6432;SDS011;3249;42.690;23.260;2022-08-18T17:27:51;13.93;;;8.00;;
6432;SDS011;3249;42.690;23.260;2022-08-18T17:30:18;14.60;;;8.33;;
6432;SDS011;3249;42.690;23.260;2022-08-18T17:35:22;9.10;;;7.97;;
6432;SDS011;3249;42.690;23.260;2022-08-18T17:37:52;11.63;;;8.47;;
6432;SDS011;3249;42.690;23.260;2022-08-18T17:40:29;9.43;;;8.00;;
6432;SDS011;3249;42.690;23.260;2022-08-18T17:42:59;8.83;;;8.00;;
6432;SDS011;3249;42.690;23.260;2022-08-18T17:45:26;8.73;;;7.63;;
6432;SDS011;3249;42.690;23.260;2022-08-18T17:48:07;8.73;;;7.87;;
6432;SDS011;3249;42.690;23.260;2022-08-18T17:50:47;9.23;;;7.60;;
6432;SDS011;3249;42.690;23.260;2022-08-18T17:53:37;11.00;;;8.37;;
6432;SDS011;3249;42.690;23.260;2022-08-18T18:01:19;14.10;;;7.60;;
6432;SDS011;3249;42.690;23.260;2022-08-18T18:03:45;9.10;;;7.93;;
6432;SDS011;3249;42.690;23.260;2022-08-18T18:06:30;10.53;;;7.33;;
6432;SDS011;3249;42.690;23.260;2022-08-18T18:11:35;10.97;;;7.03;;
6432;SDS011;3249;42.690;23.260;2022-08-18T18:19:25;12.97;;;8.50;;